Huvudsida
METAR-TAF:

METAR-TAF

Flygplatser :

Yap International Airport

Yap, Mikronesien

latitud: 09-29N, longitud: 138-05E, höjd: 28 m

Aktuellt väderrapport

Denna rapport gjordes för 30 minuter sedan, klockan 05:51 UTC
Vind 7 kt från syd/sydost
Temperatur 32°C
Fuktighet 71%
Tryck 1008 hPa
Sikt: 19.3 km
Få moln på en höjd av 1600 ft, Cumulonimbus.
Spridda moln på en höjd av 30000 ft
skurar i närheten

METAR: PTYA 220551Z 16007KT 12SM VCSH FEW016CB SCT300 32/26 A2977 RMK VCSH N CB N-NE-SE MOV N SLP081 8/301 T03220257 10327 20312 57012

Tid: 16:21 (06:21 UTC)

Väderprognos

Denna rapport gjordes för 59 minuter sedan, klockan 05:22 UTC
Prognos gäller från 22 kl. 06 UTC till 23 kl. 06 UTC
Vind 5 kt varierande vindriktning
Sikt: 10 km
Få moln på en höjd av 1600 ft
Spridda moln på en höjd av 3000 ft
skurar i närheten

TAF: PTYA 220522Z 2206/2306 VRB05KT P6SM VCSH FEW016 SCT030

Aktuella väderrapporter och prognoser från 4000 flygplatser (METAR- och TAF-rapporter).

De tillgängliga stationerna syns som gula och röda prickar på kartan.

För musen över prickarna för att se namnen på stationerna.

Klicka sedan för att få väderrapporter och prognoser.

För att ändra kartan: Klicka på de gröna knapparna med ett svart kors på för att zooma in; den gröna knappen med ett streck på för att zooma ut; eller på de gröna pilarna för angränsande kartor.


METAR-TAF: